sensor_id;sensor_type;location;lat;lon;timestamp;pressure;altitude;pressure_sealevel;temperature;humidity
72055;BME280;59936;51.490;5.436;2022-12-04T00:03:59;101449.09;;;-0.76;100.00
72055;BME280;59936;51.490;5.436;2022-12-04T00:09:03;101444.75;;;-0.79;100.00
72055;BME280;59936;51.490;5.436;2022-12-04T00:14:06;101443.03;;;-0.82;100.00
72055;BME280;59936;51.490;5.436;2022-12-04T00:19:08;101435.41;;;-0.77;100.00
72055;BME280;59936;51.490;5.436;2022-12-04T00:24:10;101435.34;;;-0.80;100.00
72055;BME280;59936;51.490;5.436;2022-12-04T00:29:15;101431.88;;;-0.85;100.00
72055;BME280;59936;51.490;5.436;2022-12-04T00:34:16;101436.19;;;-0.83;100.00
72055;BME280;59936;51.490;5.436;2022-12-04T00:39:19;101429.34;;;-0.84;100.00
72055;BME280;59936;51.490;5.436;2022-12-04T00:44:23;101426.78;;;-0.82;100.00
72055;BME280;59936;51.490;5.436;2022-12-04T00:49:24;101426.81;;;-0.81;100.00
72055;BME280;59936;51.490;5.436;2022-12-04T00:54:26;101425.97;;;-0.80;100.00
72055;BME280;59936;51.490;5.436;2022-12-04T00:59:29;101418.22;;;-0.84;100.00
72055;BME280;59936;51.490;5.436;2022-12-04T01:04:31;101425.88;;;-0.86;100.00
72055;BME280;59936;51.490;5.436;2022-12-04T01:09:32;101439.59;;;-0.84;100.00
72055;BME280;59936;51.490;5.436;2022-12-04T01:14:35;101439.59;;;-0.84;100.00
72055;BME280;59936;51.490;5.436;2022-12-04T01:19:38;101440.44;;;-0.85;100.00
72055;BME280;59936;51.490;5.436;2022-12-04T01:24:39;101439.63;;;-0.81;100.00
72055;BME280;59936;51.490;5.436;2022-12-04T01:29:42;101437.94;;;-0.79;100.00
72055;BME280;59936;51.490;5.436;2022-12-04T01:34:45;101443.06;;;-0.79;100.00
72055;BME280;59936;51.490;5.436;2022-12-04T01:39:47;101440.59;;;-0.74;100.00
72055;BME280;59936;51.490;5.436;2022-12-04T01:50:41;101436.28;;;-0.76;100.00
72055;BME280;59936;51.490;5.436;2022-12-04T01:55:45;101422.50;;;-0.82;100.00
72055;BME280;59936;51.490;5.436;2022-12-04T02:00:55;101425.16;;;-0.77;100.00
72055;BME280;59936;51.490;5.436;2022-12-04T02:06:01;101421.72;;;-0.78;100.00
72055;BME280;59936;51.490;5.436;2022-12-04T02:11:14;101419.16;;;-0.78;100.00
72055;BME280;59936;51.490;5.436;2022-12-04T02:16:34;101423.41;;;-0.80;100.00
72055;BME280;59936;51.490;5.436;2022-12-04T02:21:42;101422.56;;;-0.79;100.00
72055;BME280;59936;51.490;5.436;2022-12-04T02:26:52;101417.38;;;-0.83;100.00
72055;BME280;59936;51.490;5.436;2022-12-04T02:32:11;101425.09;;;-0.80;100.00
72055;BME280;59936;51.490;5.436;2022-12-04T02:37:25;101411.44;;;-0.79;100.00
72055;BME280;59936;51.490;5.436;2022-12-04T02:42:35;101416.56;;;-0.81;100.00
72055;BME280;59936;51.490;5.436;2022-12-04T02:47:43;101408.84;;;-0.84;100.00
72055;BME280;59936;51.490;5.436;2022-12-04T02:52:49;101404.53;;;-0.86;100.00
72055;BME280;59936;51.490;5.436;2022-12-04T02:57:59;101410.53;;;-0.83;100.00
72055;BME280;59936;51.490;5.436;2022-12-04T03:03:09;101400.28;;;-0.83;100.00
72055;BME280;59936;51.490;5.436;2022-12-04T03:08:20;101405.41;;;-0.83;100.00
72055;BME280;59936;51.490;5.436;2022-12-04T03:13:30;101406.31;;;-0.81;100.00
72055;BME280;59936;51.490;5.436;2022-12-04T03:18:41;101413.09;;;-0.84;100.00
72055;BME280;59936;51.490;5.436;2022-12-04T03:23:51;101407.13;;;-0.85;100.00
72055;BME280;59936;51.490;5.436;2022-12-04T03:29:00;101407.13;;;-0.85;100.00
72055;BME280;59936;51.490;5.436;2022-12-04T03:34:12;101402.84;;;-0.83;100.00
72055;BME280;59936;51.490;5.436;2022-12-04T03:39:23;101393.44;;;-0.84;100.00
72055;BME280;59936;51.490;5.436;2022-12-04T03:44:34;101392.53;;;-0.87;100.00
72055;BME280;59936;51.490;5.436;2022-12-04T03:49:43;101394.28;;;-0.83;100.00
72055;BME280;59936;51.490;5.436;2022-12-04T03:54:55;101390.81;;;-0.88;100.00
72055;BME280;59936;51.490;5.436;2022-12-04T04:00:03;101396.00;;;-0.85;100.00
72055;BME280;59936;51.490;5.436;2022-12-04T04:05:11;101383.19;;;-0.85;100.00
72055;BME280;59936;51.490;5.436;2022-12-04T04:10:17;101381.41;;;-0.89;100.00
72055;BME280;59936;51.490;5.436;2022-12-04T04:15:22;101382.28;;;-0.87;100.00
72055;BME280;59936;51.490;5.436;2022-12-04T04:20:46;101388.28;;;-0.87;100.00
72055;BME280;59936;51.490;5.436;2022-12-04T04:26:10;101386.59;;;-0.83;100.00
72055;BME280;59936;51.490;5.436;2022-12-04T04:31:20;101381.44;;;-0.88;100.00
72055;BME280;59936;51.490;5.436;2022-12-04T04:36:34;101380.63;;;-0.85;100.00
72055;BME280;59936;51.490;5.436;2022-12-04T04:41:47;101385.72;;;-0.87;100.00
72055;BME280;59936;51.490;5.436;2022-12-04T04:46:59;101384.03;;;-0.86;100.00
72055;BME280;59936;51.490;5.436;2022-12-04T04:52:05;101384.03;;;-0.83;100.00
72055;BME280;59936;51.490;5.436;2022-12-04T04:57:09;101388.38;;;-0.81;100.00
72055;BME280;59936;51.490;5.436;2022-12-04T05:02:11;101390.09;;;-0.80;100.00
72055;BME280;59936;51.490;5.436;2022-12-04T05:07:14;101398.66;;;-0.78;100.00
72055;BME280;59936;51.490;5.436;2022-12-04T05:12:16;101391.84;;;-0.75;100.00
72055;BME280;59936;51.490;5.436;2022-12-04T05:17:17;101395.28;;;-0.76;100.00
72055;BME280;59936;51.490;5.436;2022-12-04T05:22:22;101387.56;;;-0.78;100.00
72055;BME280;59936;51.490;5.436;2022-12-04T05:27:28;101392.72;;;-0.73;100.00
72055;BME280;59936;51.490;5.436;2022-12-04T05:32:31;101396.97;;;-0.75;100.00
72055;BME280;59936;51.490;5.436;2022-12-04T05:37:36;101387.56;;;-0.76;100.00
72055;BME280;59936;51.490;5.436;2022-12-04T05:42:39;101385.00;;;-0.76;100.00
72055;BME280;59936;51.490;5.436;2022-12-04T05:47:41;101376.47;;;-0.75;100.00
72055;BME280;59936;51.490;5.436;2022-12-04T05:52:45;101383.28;;;-0.76;100.00
72055;BME280;59936;51.490;5.436;2022-12-04T05:57:47;101376.47;;;-0.75;100.00
72055;BME280;59936;51.490;5.436;2022-12-04T06:02:48;101371.34;;;-0.75;100.00
72055;BME280;59936;51.490;5.436;2022-12-04T06:07:53;101367.88;;;-0.78;100.00
72055;BME280;59936;51.490;5.436;2022-12-04T06:12:54;101369.66;;;-0.73;100.00
72055;BME280;59936;51.490;5.436;2022-12-04T06:17:58;101370.50;;;-0.74;100.00
72055;BME280;59936;51.490;5.436;2022-12-04T06:23:01;101373.94;;;-0.74;100.00
72055;BME280;59936;51.490;5.436;2022-12-04T06:28:03;101376.53;;;-0.72;100.00
72055;BME280;59936;51.490;5.436;2022-12-04T06:33:05;101376.53;;;-0.72;100.00
72055;BME280;59936;51.490;5.436;2022-12-04T06:38:09;101372.22;;;-0.75;100.00
72055;BME280;59936;51.490;5.436;2022-12-04T06:43:12;101377.38;;;-0.70;100.00
72055;BME280;59936;51.490;5.436;2022-12-04T06:48:14;101381.72;;;-0.66;100.00
72055;BME280;59936;51.490;5.436;2022-12-04T06:53:17;101376.53;;;-0.69;100.00
72055;BME280;59936;51.490;5.436;2022-12-04T06:58:18;101389.41;;;-0.66;100.00
72055;BME280;59936;51.490;5.436;2022-12-04T07:03:21;101390.25;;;-0.67;100.00
72055;BME280;59936;51.490;5.436;2022-12-04T07:08:24;101395.44;;;-0.64;100.00
72055;BME280;59936;51.490;5.436;2022-12-04T07:13:26;101399.66;;;-0.66;100.00
72055;BME280;59936;51.490;5.436;2022-12-04T07:18:29;101402.22;;;-0.66;100.00
72055;BME280;59936;51.490;5.436;2022-12-04T07:23:34;101405.63;;;-0.67;100.00
72055;BME280;59936;51.490;5.436;2022-12-04T07:28:36;101414.22;;;-0.65;100.00
72055;BME280;59936;51.490;5.436;2022-12-04T07:33:39;101409.97;;;-0.63;100.00
72055;BME280;59936;51.490;5.436;2022-12-04T07:38:42;101416.81;;;-0.62;100.00
72055;BME280;59936;51.490;5.436;2022-12-04T07:43:44;101417.66;;;-0.63;100.00
72055;BME280;59936;51.490;5.436;2022-12-04T07:48:47;101416.91;;;-0.56;100.00
72055;BME280;59936;51.490;5.436;2022-12-04T07:53:51;101425.44;;;-0.57;100.00
72055;BME280;59936;51.490;5.436;2022-12-04T07:58:53;101416.81;;;-0.62;100.00
72055;BME280;59936;51.490;5.436;2022-12-04T08:03:57;101424.59;;;-0.56;100.00
72055;BME280;59936;51.490;5.436;2022-12-04T08:09:03;101430.56;;;-0.54;100.00
72055;BME280;59936;51.490;5.436;2022-12-04T08:14:05;101433.25;;;-0.47;100.00
72055;BME280;59936;51.490;5.436;2022-12-04T08:19:09;101428.13;;;-0.46;100.00
72055;BME280;59936;51.490;5.436;2022-12-04T08:24:13;101437.59;;;-0.42;100.00
72055;BME280;59936;51.490;5.436;2022-12-04T08:29:15;101437.56;;;-0.43;100.00
72055;BME280;59936;51.490;5.436;2022-12-04T08:34:16;101433.38;;;-0.35;100.00
72055;BME280;59936;51.490;5.436;2022-12-04T08:39:19;101428.25;;;-0.35;100.00
72055;BME280;59936;51.490;5.436;2022-12-04T08:44:21;101429.13;;;-0.36;100.00
72055;BME280;59936;51.490;5.436;2022-12-04T08:49:23;101426.53;;;-0.36;100.00
72055;BME280;59936;51.490;5.436;2022-12-04T08:54:26;101419.84;;;-0.24;100.00
72055;BME280;59936;51.490;5.436;2022-12-04T08:59:27;101423.28;;;-0.22;100.00
72055;BME280;59936;51.490;5.436;2022-12-04T09:04:30;101415.69;;;-0.15;100.00
72055;BME280;59936;51.490;5.436;2022-12-04T09:09:33;101425.94;;;-0.16;100.00
72055;BME280;59936;51.490;5.436;2022-12-04T09:14:35;101432.00;;;-0.08;100.00
72055;BME280;59936;51.490;5.436;2022-12-04T09:19:38;101431.25;;;0.01;100.00
72055;BME280;59936;51.490;5.436;2022-12-04T09:24:41;101442.25;;;-0.08;100.00
72055;BME280;59936;51.490;5.436;2022-12-04T09:29:43;101444.06;;;-0.01;100.00
72055;BME280;59936;51.490;5.436;2022-12-04T09:34:45;101439.88;;;0.08;100.00
72055;BME280;59936;51.490;5.436;2022-12-04T09:39:52;101436.44;;;0.09;100.00
72055;BME280;59936;51.490;5.436;2022-12-04T09:44:58;101432.25;;;0.14;100.00
72055;BME280;59936;51.490;5.436;2022-12-04T09:50:12;101431.31;;;0.09;100.00
72055;BME280;59936;51.490;5.436;2022-12-04T09:55:23;101430.34;;;-0.01;100.00
72055;BME280;59936;51.490;5.436;2022-12-04T10:00:29;101446.50;;;-0.13;100.00
72055;BME280;59936;51.490;5.436;2022-12-04T10:05:41;101438.75;;;-0.16;100.00
72055;BME280;59936;51.490;5.436;2022-12-04T10:10:58;101449.06;;;-0.10;100.00
72055;BME280;59936;51.490;5.436;2022-12-04T10:16:10;101440.41;;;-0.23;100.00
72055;BME280;59936;51.490;5.436;2022-12-04T10:21:27;101428.44;;;-0.21;100.00
72055;BME280;59936;51.490;5.436;2022-12-04T10:26:40;101429.28;;;-0.22;100.00
72055;BME280;59936;51.490;5.436;2022-12-04T10:31:48;101431.75;;;-0.28;100.00
72055;BME280;59936;51.490;5.436;2022-12-04T10:36:59;101427.47;;;-0.29;100.00
72055;BME280;59936;51.490;5.436;2022-12-04T10:42:19;101444.56;;;-0.30;100.00
72055;BME280;59936;51.490;5.436;2022-12-04T10:47:25;101442.00;;;-0.28;100.00
72055;BME280;59936;51.490;5.436;2022-12-04T10:52:28;101430.91;;;-0.29;100.00
72055;BME280;59936;51.490;5.436;2022-12-04T10:57:36;101424.88;;;-0.31;100.00
72055;BME280;59936;51.490;5.436;2022-12-04T11:02:40;101418.94;;;-0.28;100.00
72055;BME280;59936;51.490;5.436;2022-12-04T11:07:44;101418.22;;;-0.16;100.00
72055;BME280;59936;51.490;5.436;2022-12-04T11:12:57;101412.19;;;-0.18;100.00
72055;BME280;59936;51.490;5.436;2022-12-04T11:18:12;101407.03;;;-0.24;100.00
72055;BME280;59936;51.490;5.436;2022-12-04T11:23:17;101406.13;;;-0.27;100.00
72055;BME280;59936;51.490;5.436;2022-12-04T11:28:24;101395.03;;;-0.27;100.00
72055;BME280;59936;51.490;5.436;2022-12-04T11:33:33;101401.13;;;-0.17;100.00
72055;BME280;59936;51.490;5.436;2022-12-04T11:38:40;101395.06;;;-0.21;100.00
72055;BME280;59936;51.490;5.436;2022-12-04T11:43:47;101397.56;;;-0.29;100.00
72055;BME280;59936;51.490;5.436;2022-12-04T11:48:51;101400.19;;;-0.25;100.00
72055;BME280;59936;51.490;5.436;2022-12-04T11:53:58;101397.63;;;-0.22;100.00
72055;BME280;59936;51.490;5.436;2022-12-04T11:59:29;101404.41;;;-0.28;100.00
72055;BME280;59936;51.490;5.436;2022-12-04T12:04:57;101388.19;;;-0.25;100.00
72055;BME280;59936;51.490;5.436;2022-12-04T12:10:14;101376.22;;;-0.24;100.00
72055;BME280;59936;51.490;5.436;2022-12-04T12:15:26;101373.72;;;-0.21;100.00
72055;BME280;59936;51.490;5.436;2022-12-04T12:20:53;101377.91;;;-0.27;100.00
72055;BME280;59936;51.490;5.436;2022-12-04T12:26:08;101355.72;;;-0.23;100.00
72055;BME280;59936;51.490;5.436;2022-12-04T12:31:26;101363.44;;;-0.21;100.00
72055;BME280;59936;51.490;5.436;2022-12-04T12:36:45;101348.00;;;-0.26;100.00
72055;BME280;59936;51.490;5.436;2022-12-04T12:41:52;101348.06;;;-0.17;100.00
72055;BME280;59936;51.490;5.436;2022-12-04T12:47:00;101349.03;;;-0.07;100.00
72055;BME280;59936;51.490;5.436;2022-12-04T12:52:14;101342.19;;;-0.08;100.00
72055;BME280;59936;51.490;5.436;2022-12-04T12:57:28;101342.13;;;-0.13;100.00
72055;BME280;59936;51.490;5.436;2022-12-04T13:02:41;101347.25;;;-0.13;100.00
72055;BME280;59936;51.490;5.436;2022-12-04T13:07:55;101348.19;;;-0.09;100.00
72055;BME280;59936;51.490;5.436;2022-12-04T13:13:05;101347.31;;;-0.08;100.00
72055;BME280;59936;51.490;5.436;2022-12-04T13:18:21;101347.41;;;-0.02;100.00
72055;BME280;59936;51.490;5.436;2022-12-04T13:23:40;101349.97;;;0.02;100.00
72055;BME280;59936;51.490;5.436;2022-12-04T13:28:55;101350.75;;;-0.04;100.00
72055;BME280;59936;51.490;5.436;2022-12-04T13:34:28;101348.22;;;-0.03;100.00
72055;BME280;59936;51.490;5.436;2022-12-04T13:40:14;101341.41;;;-0.01;100.00
72055;BME280;59936;51.490;5.436;2022-12-04T13:45:32;101327.75;;;0.04;100.00
72055;BME280;59936;51.490;5.436;2022-12-04T13:50:37;101335.44;;;0.02;100.00
72055;BME280;59936;51.490;5.436;2022-12-04T13:55:41;101344.84;;;0.02;100.00
72055;BME280;59936;51.490;5.436;2022-12-04T14:00:43;101341.41;;;-0.01;100.00
72055;BME280;59936;51.490;5.436;2022-12-04T14:05:47;101338.84;;;0.01;100.00
72055;BME280;59936;51.490;5.436;2022-12-04T14:10:57;101340.59;;;0.05;100.00
72055;BME280;59936;51.490;5.436;2022-12-04T14:16:02;101330.34;;;0.05;100.00
72055;BME280;59936;51.490;5.436;2022-12-04T14:21:07;101332.97;;;0.10;100.00
72055;BME280;59936;51.490;5.436;2022-12-04T14:26:23;101329.53;;;0.09;100.00
72055;BME280;59936;51.490;5.436;2022-12-04T14:31:33;101332.09;;;0.09;100.00
72055;BME280;59936;51.490;5.436;2022-12-04T14:36:42;101329.53;;;0.11;100.00
72055;BME280;59936;51.490;5.436;2022-12-04T14:41:48;101334.69;;;0.11;100.00
72055;BME280;59936;51.490;5.436;2022-12-04T14:46:52;101326.13;;;0.12;100.00
72055;BME280;59936;51.490;5.436;2022-12-04T14:52:04;101329.56;;;0.14;100.00
72055;BME280;59936;51.490;5.436;2022-12-04T14:57:27;101337.28;;;0.14;100.00
72055;BME280;59936;51.490;5.436;2022-12-04T15:02:42;101340.72;;;0.18;100.00
72055;BME280;59936;51.490;5.436;2022-12-04T15:07:49;101352.69;;;0.19;100.00
72055;BME280;59936;51.490;5.436;2022-12-04T15:12:54;101353.56;;;0.19;100.00
72055;BME280;59936;51.490;5.436;2022-12-04T15:17:57;101362.16;;;0.24;100.00
72055;BME280;59936;51.490;5.436;2022-12-04T15:23:01;101365.50;;;0.17;100.00
72055;BME280;59936;51.490;5.436;2022-12-04T15:28:08;101355.31;;;0.23;100.00
72055;BME280;59936;51.490;5.436;2022-12-04T15:33:16;101350.19;;;0.23;100.00
72055;BME280;59936;51.490;5.436;2022-12-04T15:38:22;101348.47;;;0.22;100.00
72055;BME280;59936;51.490;5.436;2022-12-04T15:43:28;101344.19;;;0.26;100.00
72055;BME280;59936;51.490;5.436;2022-12-04T15:48:31;101350.25;;;0.30;100.00
72055;BME280;59936;51.490;5.436;2022-12-04T15:53:37;101356.19;;;0.27;100.00
72055;BME280;59936;51.490;5.436;2022-12-04T15:58:40;101360.50;;;0.33;100.00
72055;BME280;59936;51.490;5.436;2022-12-04T16:03:54;101360.50;;;0.31;100.00
72055;BME280;59936;51.490;5.436;2022-12-04T16:08:59;101358.84;;;0.35;100.00
72055;BME280;59936;51.490;5.436;2022-12-04T16:14:16;101359.69;;;0.35;100.00
72055;BME280;59936;51.490;5.436;2022-12-04T16:19:27;101360.56;;;0.36;100.00
72055;BME280;59936;51.490;5.436;2022-12-04T16:24:34;101360.63;;;0.42;100.00
72055;BME280;59936;51.490;5.436;2022-12-04T16:29:36;101369.16;;;0.41;100.00
72055;BME280;59936;51.490;5.436;2022-12-04T16:34:39;101364.88;;;0.42;100.00
72055;BME280;59936;51.490;5.436;2022-12-04T16:39:42;101365.72;;;0.41;100.00
72055;BME280;59936;51.490;5.436;2022-12-04T16:44:46;101371.72;;;0.43;100.00
72055;BME280;59936;51.490;5.436;2022-12-04T16:49:50;101378.59;;;0.44;100.00
72055;BME280;59936;51.490;5.436;2022-12-04T16:54:55;101367.50;;;0.46;100.00
72055;BME280;59936;51.490;5.436;2022-12-04T16:59:57;101380.31;;;0.45;100.00
72055;BME280;59936;51.490;5.436;2022-12-04T17:04:58;101376.91;;;0.46;100.00
72055;BME280;59936;51.490;5.436;2022-12-04T17:10:03;101376.03;;;0.42;100.00
72055;BME280;59936;51.490;5.436;2022-12-04T17:15:07;101375.19;;;0.46;100.00
72055;BME280;59936;51.490;5.436;2022-12-04T17:20:11;101384.63;;;0.47;100.00
72055;BME280;59936;51.490;5.436;2022-12-04T17:25:16;101381.16;;;0.45;100.00
72055;BME280;59936;51.490;5.436;2022-12-04T17:30:18;101388.91;;;0.50;100.00
72055;BME280;59936;51.490;5.436;2022-12-04T17:35:21;101391.50;;;0.51;100.00
72055;BME280;59936;51.490;5.436;2022-12-04T17:40:24;101394.97;;;0.54;100.00
72055;BME280;59936;51.490;5.436;2022-12-04T17:45:27;101406.06;;;0.54;100.00
72055;BME280;59936;51.490;5.436;2022-12-04T17:50:29;101405.22;;;0.57;100.00
72055;BME280;59936;51.490;5.436;2022-12-04T17:55:34;101411.22;;;0.54;100.00
72055;BME280;59936;51.490;5.436;2022-12-04T18:00:35;101407.78;;;0.55;100.00
72055;BME280;59936;51.490;5.436;2022-12-04T18:05:37;101412.94;;;0.58;100.00
72055;BME280;59936;51.490;5.436;2022-12-04T18:10:40;101403.50;;;0.56;100.00
72055;BME280;59936;51.490;5.436;2022-12-04T18:15:43;101412.13;;;0.58;100.00
72055;BME280;59936;51.490;5.436;2022-12-04T18:20:45;101403.53;;;0.57;100.00
72055;BME280;59936;51.490;5.436;2022-12-04T18:25:54;101389.00;;;0.58;100.00
72055;BME280;59936;51.490;5.436;2022-12-04T18:31:00;101395.81;;;0.56;100.00
72055;BME280;59936;51.490;5.436;2022-12-04T18:36:04;101398.38;;;0.56;100.00
72055;BME280;59936;51.490;5.436;2022-12-04T18:41:11;101397.53;;;0.54;100.00
72055;BME280;59936;51.490;5.436;2022-12-04T18:46:15;101393.22;;;0.49;100.00
72055;BME280;59936;51.490;5.436;2022-12-04T18:51:19;101394.91;;;0.49;100.00
72055;BME280;59936;51.490;5.436;2022-12-04T18:56:25;101391.47;;;0.48;100.00
72055;BME280;59936;51.490;5.436;2022-12-04T19:01:28;101384.63;;;0.47;100.00
72055;BME280;59936;51.490;5.436;2022-12-04T19:06:33;101388.88;;;0.45;100.00
72055;BME280;59936;51.490;5.436;2022-12-04T19:11:38;101394.00;;;0.42;100.00
72055;BME280;59936;51.490;5.436;2022-12-04T19:16:41;101394.84;;;0.44;100.00
72055;BME280;59936;51.490;5.436;2022-12-04T19:21:43;101403.41;;;0.43;100.00
72055;BME280;59936;51.490;5.436;2022-12-04T19:26:47;101397.44;;;0.46;100.00
72055;BME280;59936;51.490;5.436;2022-12-04T19:31:48;101406.84;;;0.45;100.00
72055;BME280;59936;51.490;5.436;2022-12-04T19:36:52;101407.72;;;0.47;100.00
72055;BME280;59936;51.490;5.436;2022-12-04T19:41:57;101401.72;;;0.44;100.00
72055;BME280;59936;51.490;5.436;2022-12-04T19:46:59;101404.28;;;0.45;100.00
72055;BME280;59936;51.490;5.436;2022-12-04T19:52:01;101408.63;;;0.49;100.00
72055;BME280;59936;51.490;5.436;2022-12-04T19:57:04;101407.75;;;0.49;100.00
72055;BME280;59936;51.490;5.436;2022-12-04T20:02:07;101413.75;;;0.49;100.00
72055;BME280;59936;51.490;5.436;2022-12-04T20:07:11;101410.34;;;0.50;100.00
72055;BME280;59936;51.490;5.436;2022-12-04T20:12:14;101414.63;;;0.53;100.00
72055;BME280;59936;51.490;5.436;2022-12-04T20:17:17;101412.94;;;0.54;100.00
72055;BME280;59936;51.490;5.436;2022-12-04T20:22:18;101410.34;;;0.50;100.00
72055;BME280;59936;51.490;5.436;2022-12-04T20:27:22;101407.75;;;0.50;100.00
72055;BME280;59936;51.490;5.436;2022-12-04T20:32:24;101411.19;;;0.53;100.00
72055;BME280;59936;51.490;5.436;2022-12-04T20:37:27;101412.06;;;0.55;100.00
72055;BME280;59936;51.490;5.436;2022-12-04T20:42:30;101406.94;;;0.55;100.00
72055;BME280;59936;51.490;5.436;2022-12-04T20:47:33;101406.97;;;0.58;100.00
72055;BME280;59936;51.490;5.436;2022-12-04T20:52:35;101411.25;;;0.57;100.00
72055;BME280;59936;51.490;5.436;2022-12-04T20:57:40;101415.50;;;0.57;100.00
72055;BME280;59936;51.490;5.436;2022-12-04T21:02:41;101420.69;;;0.60;100.00
72055;BME280;59936;51.490;5.436;2022-12-04T21:07:43;101414.69;;;0.58;100.00
72055;BME280;59936;51.490;5.436;2022-12-04T21:12:46;101417.25;;;0.61;100.00
72055;BME280;59936;51.490;5.436;2022-12-04T21:18:05;101423.25;;;0.60;100.00
72055;BME280;59936;51.490;5.436;2022-12-04T21:23:07;101419.84;;;0.59;100.00
72055;BME280;59936;51.490;5.436;2022-12-04T21:28:12;101417.25;;;0.61;100.00
72055;BME280;59936;51.490;5.436;2022-12-04T21:33:13;101409.56;;;0.62;100.00
72055;BME280;59936;51.490;5.436;2022-12-04T21:38:16;101414.69;;;0.62;100.00
72055;BME280;59936;51.490;5.436;2022-12-04T21:43:19;101414.69;;;0.62;100.00
72055;BME280;59936;51.490;5.436;2022-12-04T21:48:21;101415.50;;;0.57;100.00
72055;BME280;59936;51.490;5.436;2022-12-04T21:53:23;101407.88;;;0.63;100.00
72055;BME280;59936;51.490;5.436;2022-12-04T21:58:26;101413.03;;;0.64;100.00
72055;BME280;59936;51.490;5.436;2022-12-04T22:03:30;101409.56;;;0.62;100.00
72055;BME280;59936;51.490;5.436;2022-12-04T22:08:33;101415.56;;;0.63;100.00
72055;BME280;59936;51.490;5.436;2022-12-04T22:13:37;101412.97;;;0.60;100.00
72055;BME280;59936;51.490;5.436;2022-12-04T22:18:41;101417.28;;;0.64;100.00
72055;BME280;59936;51.490;5.436;2022-12-04T22:23:43;101414.72;;;0.66;100.00
72055;BME280;59936;51.490;5.436;2022-12-04T22:28:46;101424.13;;;0.65;100.00
72055;BME280;59936;51.490;5.436;2022-12-04T22:33:50;101424.16;;;0.67;100.00
72055;BME280;59936;51.490;5.436;2022-12-04T22:38:53;101421.63;;;0.70;100.00
72055;BME280;59936;51.490;5.436;2022-12-04T22:43:56;101425.88;;;0.66;100.00
72055;BME280;59936;51.490;5.436;2022-12-04T22:48:58;101421.59;;;0.67;100.00
72055;BME280;59936;51.490;5.436;2022-12-04T22:54:00;101425.00;;;0.66;100.00
72055;BME280;59936;51.490;5.436;2022-12-04T22:59:03;101420.78;;;0.69;100.00
72055;BME280;59936;51.490;5.436;2022-12-04T23:04:05;101425.91;;;0.69;100.00
72055;BME280;59936;51.490;5.436;2022-12-04T23:09:10;101429.34;;;0.71;100.00
72055;BME280;59936;51.490;5.436;2022-12-04T23:14:15;101429.34;;;0.71;100.00
72055;BME280;59936;51.490;5.436;2022-12-04T23:19:17;101426.75;;;0.71;100.00
72055;BME280;59936;51.490;5.436;2022-12-04T23:24:19;101430.22;;;0.75;100.00
72055;BME280;59936;51.490;5.436;2022-12-04T23:29:22;101429.38;;;0.74;100.00
72055;BME280;59936;51.490;5.436;2022-12-04T23:34:24;101427.66;;;0.76;100.00
72055;BME280;59936;51.490;5.436;2022-12-04T23:39:26;101412.25;;;0.80;100.00
72055;BME280;59936;51.490;5.436;2022-12-04T23:44:29;101414.00;;;0.79;100.00
72055;BME280;59936;51.490;5.436;2022-12-04T23:49:31;101419.13;;;0.77;100.00
72055;BME280;59936;51.490;5.436;2022-12-04T23:54:32;101413.97;;;0.77;100.00
72055;BME280;59936;51.490;5.436;2022-12-04T23:59:38;101410.56;;;0.80;100.00
